sensor_id;sensor_type;location;lat;lon;timestamp;P1;durP1;ratioP1;P2;durP2;ratioP2
39612;SDS011;25303;48.896;13.342;2023-04-08T00:01:50;6.53;;;3.60;;
39612;SDS011;25303;48.896;13.342;2023-04-08T00:04:33;8.10;;;3.90;;
39612;SDS011;25303;48.896;13.342;2023-04-08T00:07:16;8.13;;;4.30;;
39612;SDS011;25303;48.896;13.342;2023-04-08T00:09:59;9.00;;;4.38;;
39612;SDS011;25303;48.896;13.342;2023-04-08T00:12:42;9.63;;;4.50;;
39612;SDS011;25303;48.896;13.342;2023-04-08T00:15:27;10.60;;;4.95;;
39612;SDS011;25303;48.896;13.342;2023-04-08T00:18:09;8.90;;;4.53;;
39612;SDS011;25303;48.896;13.342;2023-04-08T00:20:52;10.13;;;4.90;;
39612;SDS011;25303;48.896;13.342;2023-04-08T00:23:37;7.65;;;4.13;;
39612;SDS011;25303;48.896;13.342;2023-04-08T00:26:20;8.32;;;3.90;;
39612;SDS011;25303;48.896;13.342;2023-04-08T00:29:03;8.02;;;4.00;;
39612;SDS011;25303;48.896;13.342;2023-04-08T00:31:48;8.90;;;4.28;;
39612;SDS011;25303;48.896;13.342;2023-04-08T00:34:30;6.75;;;3.72;;
39612;SDS011;25303;48.896;13.342;2023-04-08T00:37:13;6.78;;;3.67;;
39612;SDS011;25303;48.896;13.342;2023-04-08T00:39:56;8.15;;;3.70;;
39612;SDS011;25303;48.896;13.342;2023-04-08T00:42:39;9.20;;;4.38;;
39612;SDS011;25303;48.896;13.342;2023-04-08T00:45:22;8.70;;;4.32;;
39612;SDS011;25303;48.896;13.342;2023-04-08T00:48:06;8.15;;;3.85;;
39612;SDS011;25303;48.896;13.342;2023-04-08T00:50:49;10.68;;;4.20;;
39612;SDS011;25303;48.896;13.342;2023-04-08T00:53:32;7.45;;;3.40;;
39612;SDS011;25303;48.896;13.342;2023-04-08T00:56:15;8.45;;;4.13;;
39612;SDS011;25303;48.896;13.342;2023-04-08T00:58:59;7.70;;;3.83;;
39612;SDS011;25303;48.896;13.342;2023-04-08T01:01:43;7.10;;;3.70;;
39612;SDS011;25303;48.896;13.342;2023-04-08T01:04:37;6.53;;;3.50;;
39612;SDS011;25303;48.896;13.342;2023-04-08T01:07:32;6.57;;;2.95;;
39612;SDS011;25303;48.896;13.342;2023-04-08T01:10:19;7.75;;;3.67;;
39612;SDS011;25303;48.896;13.342;2023-04-08T01:13:04;6.93;;;3.58;;
39612;SDS011;25303;48.896;13.342;2023-04-08T01:15:50;9.07;;;4.38;;
39612;SDS011;25303;48.896;13.342;2023-04-08T01:18:35;8.45;;;4.30;;
39612;SDS011;25303;48.896;13.342;2023-04-08T01:21:21;8.65;;;3.92;;
39612;SDS011;25303;48.896;13.342;2023-04-08T01:24:07;9.48;;;4.72;;
39612;SDS011;25303;48.896;13.342;2023-04-08T01:26:55;7.82;;;3.95;;
39612;SDS011;25303;48.896;13.342;2023-04-08T01:29:42;6.95;;;3.75;;
39612;SDS011;25303;48.896;13.342;2023-04-08T01:32:26;7.45;;;3.90;;
39612;SDS011;25303;48.896;13.342;2023-04-08T01:35:10;8.38;;;4.18;;
39612;SDS011;25303;48.896;13.342;2023-04-08T01:37:56;6.40;;;3.25;;
39612;SDS011;25303;48.896;13.342;2023-04-08T01:40:40;6.97;;;3.30;;
39612;SDS011;25303;48.896;13.342;2023-04-08T01:43:26;7.57;;;3.80;;
39612;SDS011;25303;48.896;13.342;2023-04-08T01:46:10;7.90;;;4.00;;
39612;SDS011;25303;48.896;13.342;2023-04-08T01:48:55;7.22;;;3.63;;
39612;SDS011;25303;48.896;13.342;2023-04-08T01:51:41;7.07;;;3.60;;
39612;SDS011;25303;48.896;13.342;2023-04-08T01:54:26;7.30;;;3.67;;
39612;SDS011;25303;48.896;13.342;2023-04-08T01:57:11;7.30;;;4.00;;
39612;SDS011;25303;48.896;13.342;2023-04-08T02:00:00;10.65;;;4.85;;
39612;SDS011;25303;48.896;13.342;2023-04-08T02:03:00;7.80;;;4.25;;
39612;SDS011;25303;48.896;13.342;2023-04-08T02:05:45;7.90;;;3.63;;
39612;SDS011;25303;48.896;13.342;2023-04-08T02:08:27;5.47;;;2.75;;
39612;SDS011;25303;48.896;13.342;2023-04-08T02:11:10;6.18;;;2.80;;
39612;SDS011;25303;48.896;13.342;2023-04-08T02:13:53;7.22;;;2.92;;
39612;SDS011;25303;48.896;13.342;2023-04-08T02:16:39;8.55;;;4.00;;
39612;SDS011;25303;48.896;13.342;2023-04-08T02:19:31;7.13;;;3.60;;
39612;SDS011;25303;48.896;13.342;2023-04-08T02:22:24;8.02;;;3.90;;
39612;SDS011;25303;48.896;13.342;2023-04-08T02:25:12;6.93;;;3.80;;
39612;SDS011;25303;48.896;13.342;2023-04-08T02:27:56;7.32;;;3.75;;
39612;SDS011;25303;48.896;13.342;2023-04-08T02:30:42;9.27;;;4.70;;
39612;SDS011;25303;48.896;13.342;2023-04-08T02:33:30;9.77;;;5.03;;
39612;SDS011;25303;48.896;13.342;2023-04-08T02:36:14;9.07;;;5.03;;
39612;SDS011;25303;48.896;13.342;2023-04-08T02:38:58;10.57;;;4.88;;
39612;SDS011;25303;48.896;13.342;2023-04-08T02:41:41;10.45;;;4.75;;
39612;SDS011;25303;48.896;13.342;2023-04-08T02:44:24;9.10;;;5.00;;
39612;SDS011;25303;48.896;13.342;2023-04-08T02:47:07;8.60;;;4.40;;
39612;SDS011;25303;48.896;13.342;2023-04-08T02:49:52;8.43;;;4.53;;
39612;SDS011;25303;48.896;13.342;2023-04-08T02:52:35;11.15;;;4.57;;
39612;SDS011;25303;48.896;13.342;2023-04-08T02:55:18;7.53;;;4.10;;
39612;SDS011;25303;48.896;13.342;2023-04-08T02:58:01;8.27;;;4.28;;
39612;SDS011;25303;48.896;13.342;2023-04-08T03:00:44;12.82;;;4.47;;
39612;SDS011;25303;48.896;13.342;2023-04-08T03:03:27;8.60;;;4.15;;
39612;SDS011;25303;48.896;13.342;2023-04-08T03:06:13;11.38;;;4.07;;
39612;SDS011;25303;48.896;13.342;2023-04-08T03:08:55;7.70;;;4.32;;
39612;SDS011;25303;48.896;13.342;2023-04-08T03:11:38;7.57;;;3.92;;
39612;SDS011;25303;48.896;13.342;2023-04-08T03:14:21;7.05;;;3.60;;
39612;SDS011;25303;48.896;13.342;2023-04-08T03:17:04;6.50;;;3.20;;
39612;SDS011;25303;48.896;13.342;2023-04-08T03:19:48;5.93;;;3.10;;
39612;SDS011;25303;48.896;13.342;2023-04-08T03:22:32;6.50;;;3.70;;
39612;SDS011;25303;48.896;13.342;2023-04-08T03:25:16;6.22;;;3.85;;
39612;SDS011;25303;48.896;13.342;2023-04-08T03:27:59;8.75;;;4.28;;
39612;SDS011;25303;48.896;13.342;2023-04-08T03:30:42;7.40;;;4.30;;
39612;SDS011;25303;48.896;13.342;2023-04-08T03:33:24;6.00;;;3.67;;
39612;SDS011;25303;48.896;13.342;2023-04-08T03:36:07;8.52;;;4.00;;
39612;SDS011;25303;48.896;13.342;2023-04-08T03:38:52;8.32;;;4.47;;
39612;SDS011;25303;48.896;13.342;2023-04-08T03:41:34;7.90;;;4.07;;
39612;SDS011;25303;48.896;13.342;2023-04-08T03:44:17;6.65;;;3.53;;
39612;SDS011;25303;48.896;13.342;2023-04-08T03:47:00;8.70;;;4.32;;
39612;SDS011;25303;48.896;13.342;2023-04-08T03:49:43;8.02;;;4.20;;
39612;SDS011;25303;48.896;13.342;2023-04-08T03:52:26;9.10;;;3.88;;
39612;SDS011;25303;48.896;13.342;2023-04-08T03:55:10;6.50;;;3.80;;
39612;SDS011;25303;48.896;13.342;2023-04-08T03:57:53;7.47;;;3.88;;
39612;SDS011;25303;48.896;13.342;2023-04-08T04:00:36;6.93;;;3.67;;
39612;SDS011;25303;48.896;13.342;2023-04-08T04:03:19;6.68;;;3.40;;
39612;SDS011;25303;48.896;13.342;2023-04-08T04:06:02;7.18;;;3.72;;
39612;SDS011;25303;48.896;13.342;2023-04-08T04:08:45;9.02;;;3.78;;
39612;SDS011;25303;48.896;13.342;2023-04-08T04:11:30;7.68;;;4.10;;
39612;SDS011;25303;48.896;13.342;2023-04-08T04:14:13;7.15;;;3.60;;
39612;SDS011;25303;48.896;13.342;2023-04-08T04:16:56;11.48;;;5.22;;
39612;SDS011;25303;48.896;13.342;2023-04-08T04:19:39;11.43;;;5.15;;
39612;SDS011;25303;48.896;13.342;2023-04-08T04:22:21;9.93;;;5.47;;
39612;SDS011;25303;48.896;13.342;2023-04-08T04:25:05;10.02;;;5.22;;
39612;SDS011;25303;48.896;13.342;2023-04-08T04:27:50;7.50;;;4.50;;
39612;SDS011;25303;48.896;13.342;2023-04-08T04:30:33;12.73;;;6.22;;
39612;SDS011;25303;48.896;13.342;2023-04-08T04:33:18;12.30;;;5.43;;
39612;SDS011;25303;48.896;13.342;2023-04-08T04:36:02;11.90;;;6.43;;
39612;SDS011;25303;48.896;13.342;2023-04-08T04:38:45;11.18;;;5.95;;
39612;SDS011;25303;48.896;13.342;2023-04-08T04:41:30;8.45;;;4.80;;
39612;SDS011;25303;48.896;13.342;2023-04-08T04:44:16;10.05;;;5.55;;
39612;SDS011;25303;48.896;13.342;2023-04-08T04:47:00;10.30;;;5.38;;
39612;SDS011;25303;48.896;13.342;2023-04-08T04:49:43;9.00;;;4.97;;
39612;SDS011;25303;48.896;13.342;2023-04-08T04:52:26;9.05;;;4.75;;
39612;SDS011;25303;48.896;13.342;2023-04-08T04:55:08;11.43;;;6.18;;
39612;SDS011;25303;48.896;13.342;2023-04-08T04:57:52;11.43;;;6.53;;
39612;SDS011;25303;48.896;13.342;2023-04-08T05:00:36;13.43;;;6.85;;
39612;SDS011;25303;48.896;13.342;2023-04-08T05:03:19;14.20;;;7.40;;
39612;SDS011;25303;48.896;13.342;2023-04-08T05:06:02;12.10;;;6.28;;
39612;SDS011;25303;48.896;13.342;2023-04-08T05:08:45;11.52;;;6.07;;
39612;SDS011;25303;48.896;13.342;2023-04-08T05:11:28;9.27;;;5.40;;
39612;SDS011;25303;48.896;13.342;2023-04-08T05:14:11;10.02;;;5.65;;
39612;SDS011;25303;48.896;13.342;2023-04-08T05:16:55;10.75;;;5.72;;
39612;SDS011;25303;48.896;13.342;2023-04-08T05:19:38;8.60;;;5.47;;
39612;SDS011;25303;48.896;13.342;2023-04-08T05:22:21;10.40;;;6.03;;
39612;SDS011;25303;48.896;13.342;2023-04-08T05:25:05;10.60;;;5.80;;
39612;SDS011;25303;48.896;13.342;2023-04-08T05:27:48;11.83;;;5.53;;
39612;SDS011;25303;48.896;13.342;2023-04-08T05:30:31;9.25;;;5.25;;
39612;SDS011;25303;48.896;13.342;2023-04-08T05:33:15;9.77;;;5.32;;
39612;SDS011;25303;48.896;13.342;2023-04-08T05:35:59;9.52;;;5.43;;
39612;SDS011;25303;48.896;13.342;2023-04-08T05:38:41;10.48;;;5.55;;
39612;SDS011;25303;48.896;13.342;2023-04-08T05:41:24;9.27;;;5.25;;
39612;SDS011;25303;48.896;13.342;2023-04-08T05:44:07;10.18;;;5.60;;
39612;SDS011;25303;48.896;13.342;2023-04-08T05:46:50;11.48;;;5.55;;
39612;SDS011;25303;48.896;13.342;2023-04-08T05:49:35;10.45;;;5.60;;
39612;SDS011;25303;48.896;13.342;2023-04-08T05:52:18;11.93;;;5.30;;
39612;SDS011;25303;48.896;13.342;2023-04-08T05:55:01;10.60;;;5.80;;
39612;SDS011;25303;48.896;13.342;2023-04-08T05:57:44;11.95;;;6.32;;
39612;SDS011;25303;48.896;13.342;2023-04-08T06:00:26;12.60;;;6.75;;
39612;SDS011;25303;48.896;13.342;2023-04-08T06:03:09;11.35;;;6.45;;
39612;SDS011;25303;48.896;13.342;2023-04-08T06:05:54;14.25;;;7.20;;
39612;SDS011;25303;48.896;13.342;2023-04-08T06:08:37;12.95;;;6.93;;
39612;SDS011;25303;48.896;13.342;2023-04-08T06:11:20;18.83;;;10.85;;
39612;SDS011;25303;48.896;13.342;2023-04-08T06:14:03;14.02;;;8.13;;
39612;SDS011;25303;48.896;13.342;2023-04-08T06:16:46;12.30;;;6.97;;
39612;SDS011;25303;48.896;13.342;2023-04-08T06:19:29;11.70;;;6.72;;
39612;SDS011;25303;48.896;13.342;2023-04-08T06:22:13;12.27;;;6.70;;
39612;SDS011;25303;48.896;13.342;2023-04-08T06:24:56;14.82;;;7.43;;
39612;SDS011;25303;48.896;13.342;2023-04-08T06:27:39;12.68;;;6.32;;
39612;SDS011;25303;48.896;13.342;2023-04-08T06:30:22;13.10;;;7.25;;
39612;SDS011;25303;48.896;13.342;2023-04-08T06:33:04;15.43;;;7.22;;
39612;SDS011;25303;48.896;13.342;2023-04-08T06:35:47;17.95;;;9.13;;
39612;SDS011;25303;48.896;13.342;2023-04-08T06:38:32;17.23;;;8.80;;
39612;SDS011;25303;48.896;13.342;2023-04-08T06:43:58;17.35;;;8.82;;
39612;SDS011;25303;48.896;13.342;2023-04-08T06:46:41;16.10;;;8.18;;
39612;SDS011;25303;48.896;13.342;2023-04-08T06:49:24;16.98;;;9.07;;
39612;SDS011;25303;48.896;13.342;2023-04-08T06:52:07;19.90;;;9.68;;
39612;SDS011;25303;48.896;13.342;2023-04-08T06:54:54;22.42;;;10.75;;
39612;SDS011;25303;48.896;13.342;2023-04-08T06:57:37;23.48;;;11.10;;
39612;SDS011;25303;48.896;13.342;2023-04-08T07:00:20;29.38;;;12.35;;
39612;SDS011;25303;48.896;13.342;2023-04-08T07:03:03;23.13;;;11.82;;
39612;SDS011;25303;48.896;13.342;2023-04-08T07:05:46;27.60;;;11.30;;
39612;SDS011;25303;48.896;13.342;2023-04-08T07:08:29;22.98;;;11.07;;
39612;SDS011;25303;48.896;13.342;2023-04-08T07:11:13;25.13;;;12.52;;
39612;SDS011;25303;48.896;13.342;2023-04-08T07:16:39;30.85;;;13.10;;
39612;SDS011;25303;48.896;13.342;2023-04-08T07:19:22;25.73;;;12.77;;
39612;SDS011;25303;48.896;13.342;2023-04-08T07:22:05;25.08;;;11.75;;
39612;SDS011;25303;48.896;13.342;2023-04-08T07:24:48;23.80;;;12.13;;
39612;SDS011;25303;48.896;13.342;2023-04-08T07:27:33;19.15;;;10.25;;
39612;SDS011;25303;48.896;13.342;2023-04-08T07:30:16;17.30;;;9.30;;
39612;SDS011;25303;48.896;13.342;2023-04-08T07:32:59;18.30;;;9.55;;
39612;SDS011;25303;48.896;13.342;2023-04-08T07:35:42;21.67;;;11.88;;
39612;SDS011;25303;48.896;13.342;2023-04-08T07:38:25;18.70;;;9.80;;
39612;SDS011;25303;48.896;13.342;2023-04-08T07:41:08;21.73;;;10.68;;
39612;SDS011;25303;48.896;13.342;2023-04-08T07:43:53;19.45;;;10.73;;
39612;SDS011;25303;48.896;13.342;2023-04-08T07:46:36;19.45;;;11.05;;
39612;SDS011;25303;48.896;13.342;2023-04-08T07:49:20;19.13;;;10.57;;
39612;SDS011;25303;48.896;13.342;2023-04-08T07:52:03;20.83;;;12.20;;
39612;SDS011;25303;48.896;13.342;2023-04-08T07:54:46;19.02;;;10.43;;
39612;SDS011;25303;48.896;13.342;2023-04-08T07:57:29;20.38;;;11.95;;
39612;SDS011;25303;48.896;13.342;2023-04-08T08:00:13;22.88;;;12.68;;
39612;SDS011;25303;48.896;13.342;2023-04-08T08:03:02;19.48;;;10.82;;
39612;SDS011;25303;48.896;13.342;2023-04-08T08:05:45;18.48;;;10.70;;
39612;SDS011;25303;48.896;13.342;2023-04-08T08:08:28;18.27;;;10.32;;
39612;SDS011;25303;48.896;13.342;2023-04-08T08:11:13;16.23;;;9.73;;
39612;SDS011;25303;48.896;13.342;2023-04-08T08:13:56;21.20;;;11.73;;
39612;SDS011;25303;48.896;13.342;2023-04-08T08:16:41;17.88;;;9.98;;
39612;SDS011;25303;48.896;13.342;2023-04-08T08:19:25;16.17;;;9.23;;
39612;SDS011;25303;48.896;13.342;2023-04-08T08:22:08;13.18;;;7.82;;
39612;SDS011;25303;48.896;13.342;2023-04-08T08:24:55;16.45;;;8.68;;
39612;SDS011;25303;48.896;13.342;2023-04-08T08:27:39;15.20;;;8.93;;
39612;SDS011;25303;48.896;13.342;2023-04-08T08:30:23;11.98;;;7.18;;
39612;SDS011;25303;48.896;13.342;2023-04-08T08:33:08;12.60;;;7.15;;
39612;SDS011;25303;48.896;13.342;2023-04-08T08:38:34;7.97;;;4.70;;
39612;SDS011;25303;48.896;13.342;2023-04-08T08:41:17;8.32;;;5.10;;
39612;SDS011;25303;48.896;13.342;2023-04-08T08:44:00;8.68;;;5.18;;
39612;SDS011;25303;48.896;13.342;2023-04-08T08:46:44;8.63;;;4.75;;
39612;SDS011;25303;48.896;13.342;2023-04-08T08:49:30;12.02;;;6.50;;
39612;SDS011;25303;48.896;13.342;2023-04-08T08:52:14;8.80;;;5.28;;
39612;SDS011;25303;48.896;13.342;2023-04-08T08:54:58;11.65;;;7.15;;
39612;SDS011;25303;48.896;13.342;2023-04-08T08:57:44;12.25;;;6.82;;
39612;SDS011;25303;48.896;13.342;2023-04-08T09:00:32;11.05;;;6.53;;
39612;SDS011;25303;48.896;13.342;2023-04-08T09:03:16;8.77;;;5.38;;
39612;SDS011;25303;48.896;13.342;2023-04-08T09:06:02;8.23;;;4.75;;
39612;SDS011;25303;48.896;13.342;2023-04-08T09:08:45;8.65;;;5.07;;
39612;SDS011;25303;48.896;13.342;2023-04-08T09:11:30;6.78;;;4.22;;
39612;SDS011;25303;48.896;13.342;2023-04-08T09:14:17;5.25;;;3.33;;
39612;SDS011;25303;48.896;13.342;2023-04-08T09:17:01;8.13;;;4.90;;
39612;SDS011;25303;48.896;13.342;2023-04-08T09:22:56;7.10;;;4.22;;
39612;SDS011;25303;48.896;13.342;2023-04-08T09:25:40;8.13;;;4.60;;
39612;SDS011;25303;48.896;13.342;2023-04-08T09:28:23;6.35;;;3.88;;
39612;SDS011;25303;48.896;13.342;2023-04-08T09:31:21;6.65;;;3.75;;
39612;SDS011;25303;48.896;13.342;2023-04-08T09:34:08;6.82;;;4.03;;
39612;SDS011;25303;48.896;13.342;2023-04-08T09:36:53;7.20;;;4.30;;
39612;SDS011;25303;48.896;13.342;2023-04-08T09:39:38;6.88;;;4.18;;
39612;SDS011;25303;48.896;13.342;2023-04-08T09:42:21;6.00;;;3.95;;
39612;SDS011;25303;48.896;13.342;2023-04-08T09:45:05;4.72;;;2.83;;
39612;SDS011;25303;48.896;13.342;2023-04-08T09:47:51;5.27;;;2.63;;
39612;SDS011;25303;48.896;13.342;2023-04-08T09:50:39;3.20;;;2.20;;
39612;SDS011;25303;48.896;13.342;2023-04-08T09:53:29;3.70;;;2.60;;
39612;SDS011;25303;48.896;13.342;2023-04-08T09:56:17;3.90;;;2.50;;
39612;SDS011;25303;48.896;13.342;2023-04-08T09:59:02;3.97;;;2.42;;
39612;SDS011;25303;48.896;13.342;2023-04-08T10:01:51;3.03;;;1.80;;
39612;SDS011;25303;48.896;13.342;2023-04-08T10:04:36;3.58;;;2.22;;
39612;SDS011;25303;48.896;13.342;2023-04-08T10:07:20;3.72;;;1.92;;
39612;SDS011;25303;48.896;13.342;2023-04-08T10:10:04;2.60;;;1.77;;
39612;SDS011;25303;48.896;13.342;2023-04-08T10:12:49;22.70;;;13.07;;
39612;SDS011;25303;48.896;13.342;2023-04-08T10:21:30;15.93;;;9.15;;
39612;SDS011;25303;48.896;13.342;2023-04-08T10:24:14;19.02;;;11.57;;
39612;SDS011;25303;48.896;13.342;2023-04-08T10:26:58;17.27;;;10.27;;
39612;SDS011;25303;48.896;13.342;2023-04-08T10:29:44;13.80;;;8.65;;
39612;SDS011;25303;48.896;13.342;2023-04-08T10:32:28;17.70;;;8.60;;
39612;SDS011;25303;48.896;13.342;2023-04-08T10:35:12;13.77;;;8.07;;
39612;SDS011;25303;48.896;13.342;2023-04-08T10:37:55;15.55;;;9.50;;
39612;SDS011;25303;48.896;13.342;2023-04-08T10:40:39;20.92;;;12.32;;
39612;SDS011;25303;48.896;13.342;2023-04-08T10:43:24;19.70;;;12.52;;
39612;SDS011;25303;48.896;13.342;2023-04-08T10:46:10;15.82;;;8.82;;
39612;SDS011;25303;48.896;13.342;2023-04-08T10:48:58;18.40;;;10.60;;
39612;SDS011;25303;48.896;13.342;2023-04-08T10:51:41;18.80;;;10.75;;
39612;SDS011;25303;48.896;13.342;2023-04-08T10:54:25;17.27;;;10.27;;
39612;SDS011;25303;48.896;13.342;2023-04-08T10:57:08;12.85;;;7.85;;
39612;SDS011;25303;48.896;13.342;2023-04-08T10:59:51;17.05;;;9.75;;
39612;SDS011;25303;48.896;13.342;2023-04-08T11:02:37;12.48;;;7.60;;
39612;SDS011;25303;48.896;13.342;2023-04-08T11:05:21;10.32;;;6.35;;
39612;SDS011;25303;48.896;13.342;2023-04-08T11:08:04;11.32;;;6.38;;
39612;SDS011;25303;48.896;13.342;2023-04-08T11:10:48;8.48;;;5.22;;
39612;SDS011;25303;48.896;13.342;2023-04-08T11:13:32;6.57;;;4.22;;
39612;SDS011;25303;48.896;13.342;2023-04-08T11:16:15;5.55;;;3.70;;
39612;SDS011;25303;48.896;13.342;2023-04-08T11:19:00;8.43;;;4.85;;
39612;SDS011;25303;48.896;13.342;2023-04-08T11:21:44;7.47;;;4.63;;
39612;SDS011;25303;48.896;13.342;2023-04-08T11:24:28;5.15;;;3.38;;
39612;SDS011;25303;48.896;13.342;2023-04-08T11:27:11;4.47;;;2.85;;
39612;SDS011;25303;48.896;13.342;2023-04-08T11:29:56;3.10;;;2.40;;
39612;SDS011;25303;48.896;13.342;2023-04-08T11:32:39;3.60;;;2.08;;
39612;SDS011;25303;48.896;13.342;2023-04-08T11:35:24;2.05;;;1.45;;
39612;SDS011;25303;48.896;13.342;2023-04-08T11:38:10;1.60;;;1.20;;
39612;SDS011;25303;48.896;13.342;2023-04-08T11:40:53;3.33;;;1.63;;
39612;SDS011;25303;48.896;13.342;2023-04-08T11:43:39;1.60;;;1.02;;
39612;SDS011;25303;48.896;13.342;2023-04-08T11:46:33;2.67;;;1.20;;
39612;SDS011;25303;48.896;13.342;2023-04-08T11:49:16;2.05;;;1.23;;
39612;SDS011;25303;48.896;13.342;2023-04-08T11:52:00;1.58;;;1.10;;
39612;SDS011;25303;48.896;13.342;2023-04-08T11:54:43;1.50;;;1.05;;
39612;SDS011;25303;48.896;13.342;2023-04-08T11:57:27;2.13;;;1.20;;
39612;SDS011;25303;48.896;13.342;2023-04-08T12:00:10;1.58;;;1.08;;
39612;SDS011;25303;48.896;13.342;2023-04-08T12:02:54;1.98;;;1.00;;
39612;SDS011;25303;48.896;13.342;2023-04-08T12:05:37;1.13;;;0.85;;
39612;SDS011;25303;48.896;13.342;2023-04-08T12:08:22;1.63;;;1.10;;
39612;SDS011;25303;48.896;13.342;2023-04-08T12:11:04;1.20;;;0.95;;
39612;SDS011;25303;48.896;13.342;2023-04-08T12:14:00;1.65;;;0.90;;
39612;SDS011;25303;48.896;13.342;2023-04-08T12:16:43;1.50;;;1.10;;
39612;SDS011;25303;48.896;13.342;2023-04-08T12:19:26;1.25;;;0.90;;
39612;SDS011;25303;48.896;13.342;2023-04-08T12:22:09;1.10;;;0.90;;
39612;SDS011;25303;48.896;13.342;2023-04-08T12:24:53;1.70;;;1.10;;
39612;SDS011;25303;48.896;13.342;2023-04-08T12:27:39;1.17;;;0.90;;
39612;SDS011;25303;48.896;13.342;2023-04-08T12:30:22;1.20;;;1.00;;
39612;SDS011;25303;48.896;13.342;2023-04-08T12:33:05;2.03;;;1.20;;
39612;SDS011;25303;48.896;13.342;2023-04-08T12:35:48;1.60;;;1.23;;
39612;SDS011;25303;48.896;13.342;2023-04-08T12:38:31;2.00;;;1.10;;
39612;SDS011;25303;48.896;13.342;2023-04-08T12:41:16;1.70;;;1.10;;
39612;SDS011;25303;48.896;13.342;2023-04-08T12:43:59;1.75;;;1.15;;
39612;SDS011;25303;48.896;13.342;2023-04-08T12:46:42;1.42;;;1.00;;
39612;SDS011;25303;48.896;13.342;2023-04-08T12:49:25;1.48;;;0.90;;
39612;SDS011;25303;48.896;13.342;2023-04-08T12:52:08;1.60;;;1.00;;
39612;SDS011;25303;48.896;13.342;2023-04-08T12:54:51;2.47;;;0.95;;
39612;SDS011;25303;48.896;13.342;2023-04-08T12:57:35;1.30;;;0.90;;
39612;SDS011;25303;48.896;13.342;2023-04-08T13:00:18;1.00;;;0.75;;
39612;SDS011;25303;48.896;13.342;2023-04-08T13:03:01;1.30;;;0.88;;
39612;SDS011;25303;48.896;13.342;2023-04-08T13:05:44;0.90;;;0.70;;
39612;SDS011;25303;48.896;13.342;2023-04-08T13:08:27;1.58;;;0.90;;
39612;SDS011;25303;48.896;13.342;2023-04-08T13:11:10;1.35;;;0.80;;
39612;SDS011;25303;48.896;13.342;2023-04-08T13:13:55;1.10;;;0.82;;
39612;SDS011;25303;48.896;13.342;2023-04-08T13:19:20;1.58;;;0.68;;
39612;SDS011;25303;48.896;13.342;2023-04-08T13:22:03;1.20;;;0.70;;
39612;SDS011;25303;48.896;13.342;2023-04-08T13:24:46;0.68;;;0.52;;
39612;SDS011;25303;48.896;13.342;2023-04-08T13:27:29;1.20;;;0.90;;
39612;SDS011;25303;48.896;13.342;2023-04-08T13:30:13;1.88;;;0.90;;
39612;SDS011;25303;48.896;13.342;2023-04-08T13:32:56;1.60;;;0.90;;
39612;SDS011;25303;48.896;13.342;2023-04-08T13:35:39;1.00;;;0.70;;
39612;SDS011;25303;48.896;13.342;2023-04-08T13:38:22;1.52;;;0.93;;
39612;SDS011;25303;48.896;13.342;2023-04-08T13:41:05;1.40;;;1.00;;
39612;SDS011;25303;48.896;13.342;2023-04-08T13:43:48;2.42;;;0.93;;
39612;SDS011;25303;48.896;13.342;2023-04-08T13:46:32;1.08;;;0.70;;
39612;SDS011;25303;48.896;13.342;2023-04-08T13:49:15;1.08;;;0.70;;
39612;SDS011;25303;48.896;13.342;2023-04-08T13:51:58;1.30;;;1.08;;
39612;SDS011;25303;48.896;13.342;2023-04-08T13:54:41;2.13;;;1.38;;
39612;SDS011;25303;48.896;13.342;2023-04-08T13:57:24;2.47;;;1.52;;
39612;SDS011;25303;48.896;13.342;2023-04-08T14:00:07;1.58;;;1.35;;
39612;SDS011;25303;48.896;13.342;2023-04-08T14:02:53;1.67;;;1.40;;
39612;SDS011;25303;48.896;13.342;2023-04-08T14:08:19;2.20;;;1.20;;
39612;SDS011;25303;48.896;13.342;2023-04-08T14:11:06;1.50;;;1.15;;
39612;SDS011;25303;48.896;13.342;2023-04-08T14:13:49;2.10;;;1.33;;
39612;SDS011;25303;48.896;13.342;2023-04-08T14:16:32;1.95;;;1.33;;
39612;SDS011;25303;48.896;13.342;2023-04-08T14:19:17;2.75;;;1.80;;
39612;SDS011;25303;48.896;13.342;2023-04-08T14:22:00;2.78;;;1.83;;
39612;SDS011;25303;48.896;13.342;2023-04-08T14:24:43;2.42;;;1.60;;
39612;SDS011;25303;48.896;13.342;2023-04-08T14:27:26;2.10;;;1.35;;
39612;SDS011;25303;48.896;13.342;2023-04-08T14:30:09;2.47;;;1.73;;
39612;SDS011;25303;48.896;13.342;2023-04-08T14:32:52;2.70;;;1.80;;
39612;SDS011;25303;48.896;13.342;2023-04-08T14:35:37;4.05;;;2.00;;
39612;SDS011;25303;48.896;13.342;2023-04-08T14:38:20;3.30;;;2.22;;
39612;SDS011;25303;48.896;13.342;2023-04-08T14:41:03;2.88;;;1.80;;
39612;SDS011;25303;48.896;13.342;2023-04-08T14:43:46;3.60;;;2.20;;
39612;SDS011;25303;48.896;13.342;2023-04-08T14:46:29;2.90;;;1.80;;
39612;SDS011;25303;48.896;13.342;2023-04-08T14:49:12;3.05;;;2.15;;
39612;SDS011;25303;48.896;13.342;2023-04-08T14:51:57;3.47;;;2.17;;
39612;SDS011;25303;48.896;13.342;2023-04-08T14:54:40;2.75;;;1.80;;
39612;SDS011;25303;48.896;13.342;2023-04-08T14:57:25;2.85;;;1.92;;
39612;SDS011;25303;48.896;13.342;2023-04-08T15:00:08;2.45;;;1.63;;
39612;SDS011;25303;48.896;13.342;2023-04-08T15:02:52;2.37;;;1.40;;
39612;SDS011;25303;48.896;13.342;2023-04-08T15:05:35;2.55;;;1.52;;
39612;SDS011;25303;48.896;13.342;2023-04-08T15:08:20;2.35;;;1.50;;
39612;SDS011;25303;48.896;13.342;2023-04-08T15:11:03;1.95;;;1.40;;
39612;SDS011;25303;48.896;13.342;2023-04-08T15:13:46;2.20;;;1.50;;
39612;SDS011;25303;48.896;13.342;2023-04-08T15:16:29;2.63;;;1.30;;
39612;SDS011;25303;48.896;13.342;2023-04-08T15:19:12;2.60;;;1.50;;
39612;SDS011;25303;48.896;13.342;2023-04-08T15:21:55;2.88;;;2.08;;
39612;SDS011;25303;48.896;13.342;2023-04-08T15:24:39;3.13;;;2.05;;
39612;SDS011;25303;48.896;13.342;2023-04-08T15:30:05;4.70;;;2.42;;
39612;SDS011;25303;48.896;13.342;2023-04-08T15:32:52;3.10;;;1.88;;
39612;SDS011;25303;48.896;13.342;2023-04-08T15:35:37;3.53;;;1.88;;
39612;SDS011;25303;48.896;13.342;2023-04-08T15:38:21;3.55;;;2.17;;
39612;SDS011;25303;48.896;13.342;2023-04-08T15:41:05;2.90;;;1.70;;
39612;SDS011;25303;48.896;13.342;2023-04-08T15:43:48;3.35;;;1.90;;
39612;SDS011;25303;48.896;13.342;2023-04-08T15:46:31;3.85;;;2.38;;
39612;SDS011;25303;48.896;13.342;2023-04-08T15:49:17;3.38;;;1.98;;
39612;SDS011;25303;48.896;13.342;2023-04-08T15:52:01;6.15;;;3.00;;
39612;SDS011;25303;48.896;13.342;2023-04-08T15:54:43;5.50;;;2.80;;
39612;SDS011;25303;48.896;13.342;2023-04-08T15:57:28;4.53;;;2.50;;
39612;SDS011;25303;48.896;13.342;2023-04-08T16:00:12;5.95;;;2.40;;
39612;SDS011;25303;48.896;13.342;2023-04-08T16:02:57;4.68;;;2.97;;
39612;SDS011;25303;48.896;13.342;2023-04-08T16:05:41;4.63;;;2.65;;
39612;SDS011;25303;48.896;13.342;2023-04-08T16:08:23;4.50;;;2.63;;
39612;SDS011;25303;48.896;13.342;2023-04-08T16:11:07;4.60;;;2.90;;
39612;SDS011;25303;48.896;13.342;2023-04-08T16:13:51;4.47;;;2.80;;
39612;SDS011;25303;48.896;13.342;2023-04-08T16:16:34;4.57;;;2.90;;
39612;SDS011;25303;48.896;13.342;2023-04-08T16:19:19;3.88;;;2.47;;
39612;SDS011;25303;48.896;13.342;2023-04-08T16:22:02;3.78;;;2.50;;
39612;SDS011;25303;48.896;13.342;2023-04-08T16:24:45;4.97;;;2.90;;
39612;SDS011;25303;48.896;13.342;2023-04-08T16:27:28;4.80;;;3.10;;
39612;SDS011;25303;48.896;13.342;2023-04-08T16:30:12;4.97;;;2.95;;
39612;SDS011;25303;48.896;13.342;2023-04-08T16:35:38;4.15;;;2.30;;